sensor_id;sensor_type;location;lat;lon;timestamp;pressure;altitude;pressure_sealevel;temperature;humidity
21109;BME280;10712;52.944;9.098;2023-08-12T00:01:49;101579.41;;;27.60;68.80
21109;BME280;10712;52.944;9.098;2023-08-12T00:04:15;101573.28;;;27.58;68.47
21109;BME280;10712;52.944;9.098;2023-08-12T00:06:42;101583.38;;;27.57;68.56
21109;BME280;10712;52.944;9.098;2023-08-12T00:09:09;101580.81;;;27.56;68.80
21109;BME280;10712;52.944;9.098;2023-08-12T00:11:38;101579.81;;;27.57;68.94
21109;BME280;10712;52.944;9.098;2023-08-12T00:14:04;101582.53;;;27.57;68.79
21109;BME280;10712;52.944;9.098;2023-08-12T00:16:30;101598.97;;;27.49;68.91
21109;BME280;10712;52.944;9.098;2023-08-12T00:18:56;101604.78;;;27.45;69.11
21109;BME280;10712;52.944;9.098;2023-08-12T00:21:22;101590.75;;;27.49;69.14
21109;BME280;10712;52.944;9.098;2023-08-12T00:23:47;101591.94;;;27.46;69.28
21109;BME280;10712;52.944;9.098;2023-08-12T00:26:15;101594.53;;;27.48;69.45
21109;BME280;10712;52.944;9.098;2023-08-12T00:28:41;101599.31;;;27.54;69.16
21109;BME280;10712;52.944;9.098;2023-08-12T00:31:07;101608.88;;;27.50;69.22
21109;BME280;10712;52.944;9.098;2023-08-12T00:33:33;101607.53;;;27.54;69.16
21109;BME280;10712;52.944;9.098;2023-08-12T00:35:59;101596.22;;;27.57;69.09
21109;BME280;10712;52.944;9.098;2023-08-12T00:38:25;101590.75;;;27.57;69.13
21109;BME280;10712;52.944;9.098;2023-08-12T00:40:50;101589.72;;;27.58;68.92
21109;BME280;10712;52.944;9.098;2023-08-12T00:43:16;101595.19;;;27.58;69.05
21109;BME280;10712;52.944;9.098;2023-08-12T00:45:42;101582.88;;;27.54;68.90
21109;BME280;10712;52.944;9.098;2023-08-12T00:48:09;101589.91;;;27.56;69.01
21109;BME280;10712;52.944;9.098;2023-08-12T00:50:40;101600.16;;;27.54;69.18
21109;BME280;10712;52.944;9.098;2023-08-12T00:53:08;101593.81;;;27.54;69.51
21109;BME280;10712;52.944;9.098;2023-08-12T00:55:34;101595.19;;;27.50;69.46
21109;BME280;10712;52.944;9.098;2023-08-12T00:58:02;101594.69;;;27.46;69.33
21109;BME280;10712;52.944;9.098;2023-08-12T01:00:30;101585.16;;;27.42;69.63
21109;BME280;10712;52.944;9.098;2023-08-12T01:02:56;101576.25;;;27.40;69.70
21109;BME280;10712;52.944;9.098;2023-08-12T01:05:22;101570.78;;;27.40;69.84
21109;BME280;10712;52.944;9.098;2023-08-12T01:07:48;101566.84;;;27.42;69.99
21109;BME280;10712;52.944;9.098;2023-08-12T01:10:15;101564.44;;;27.39;69.92
21109;BME280;10712;52.944;9.098;2023-08-12T01:12:55;101572.34;;;27.34;70.07
21109;BME280;10712;52.944;9.098;2023-08-12T01:15:24;101573.38;;;27.33;70.17
21109;BME280;10712;52.944;9.098;2023-08-12T01:17:55;101565.16;;;27.33;70.29
21109;BME280;10712;52.944;9.098;2023-08-12T01:20:25;101568.59;;;27.35;70.13
21109;BME280;10712;52.944;9.098;2023-08-12T01:23:14;101562.81;;;27.30;70.41
21109;BME280;10712;52.944;9.098;2023-08-12T01:25:42;101558.66;;;27.34;70.31
21109;BME280;10712;52.944;9.098;2023-08-12T01:28:08;101560.38;;;27.35;70.42
21109;BME280;10712;52.944;9.098;2023-08-12T01:31:08;101559.38;;;27.28;70.53
21109;BME280;10712;52.944;9.098;2023-08-12T01:33:52;101555.78;;;27.28;70.48
21109;BME280;10712;52.944;9.098;2023-08-12T01:36:25;101546.56;;;27.29;70.45
21109;BME280;10712;52.944;9.098;2023-08-12T01:38:56;101551.19;;;27.28;70.60
21109;BME280;10712;52.944;9.098;2023-08-12T01:41:26;101544.84;;;27.28;70.57
21109;BME280;10712;52.944;9.098;2023-08-12T01:43:52;101551.19;;;27.28;70.66
21109;BME280;10712;52.944;9.098;2023-08-12T01:46:18;101552.88;;;27.29;70.46
21109;BME280;10712;52.944;9.098;2023-08-12T01:48:44;101557.38;;;27.22;70.79
21109;BME280;10712;52.944;9.098;2023-08-12T01:51:11;101554.63;;;27.22;70.70
21109;BME280;10712;52.944;9.098;2023-08-12T01:53:37;101547.75;;;27.26;70.87
21109;BME280;10712;52.944;9.098;2023-08-12T01:56:03;101557.00;;;27.25;70.88
21109;BME280;10712;52.944;9.098;2023-08-12T01:58:29;101556.31;;;27.31;70.45
21109;BME280;10712;52.944;9.098;2023-08-12T02:00:55;101548.75;;;27.33;70.46
21109;BME280;10712;52.944;9.098;2023-08-12T02:03:21;101550.47;;;27.34;70.31
21109;BME280;10712;52.944;9.098;2023-08-12T02:05:47;101552.16;;;27.35;70.16
21109;BME280;10712;52.944;9.098;2023-08-12T02:08:13;101559.34;;;27.36;70.16
21109;BME280;10712;52.944;9.098;2023-08-12T02:10:39;101555.59;;;27.37;69.83
21109;BME280;10712;52.944;9.098;2023-08-12T02:13:04;101557.94;;;27.40;70.10
21109;BME280;10712;52.944;9.098;2023-08-12T02:15:30;101566.16;;;27.40;69.99
21109;BME280;10712;52.944;9.098;2023-08-12T02:17:56;101558.63;;;27.42;69.97
21109;BME280;10712;52.944;9.098;2023-08-12T02:20:22;101555.72;;;27.44;69.79
21109;BME280;10712;52.944;9.098;2023-08-12T02:22:48;101547.69;;;27.42;70.04
21109;BME280;10712;52.944;9.098;2023-08-12T02:25:15;101546.81;;;27.42;70.11
21109;BME280;10712;52.944;9.098;2023-08-12T02:27:40;101545.97;;;27.41;70.14
21109;BME280;10712;52.944;9.098;2023-08-12T02:30:07;101548.38;;;27.44;70.17
21109;BME280;10712;52.944;9.098;2023-08-12T02:32:33;101547.97;;;27.48;70.25
21109;BME280;10712;52.944;9.098;2023-08-12T02:34:59;101550.72;;;27.48;70.31
21109;BME280;10712;52.944;9.098;2023-08-12T02:37:24;101550.38;;;27.51;69.90
21109;BME280;10712;52.944;9.098;2023-08-12T02:39:50;101550.38;;;27.51;70.05
21109;BME280;10712;52.944;9.098;2023-08-12T02:42:16;101545.75;;;27.51;70.21
21109;BME280;10712;52.944;9.098;2023-08-12T02:44:42;101554.16;;;27.50;70.64
21109;BME280;10712;52.944;9.098;2023-08-12T02:47:08;101539.09;;;27.54;70.35
21109;BME280;10712;52.944;9.098;2023-08-12T02:49:33;101534.25;;;27.64;70.34
21109;BME280;10712;52.944;9.098;2023-08-12T02:51:59;101529.25;;;27.67;70.24
21109;BME280;10712;52.944;9.098;2023-08-12T02:54:25;101527.34;;;27.68;70.42
21109;BME280;10712;52.944;9.098;2023-08-12T02:56:51;101533.50;;;27.70;70.56
21109;BME280;10712;52.944;9.098;2023-08-12T02:59:17;101532.47;;;27.71;70.48
21109;BME280;10712;52.944;9.098;2023-08-12T03:01:42;101527.00;;;27.71;70.60
21109;BME280;10712;52.944;9.098;2023-08-12T03:04:08;101524.63;;;27.68;70.82
21109;BME280;10712;52.944;9.098;2023-08-12T03:06:34;101511.97;;;27.67;70.83
21109;BME280;10712;52.944;9.098;2023-08-12T03:09:00;101509.41;;;27.65;71.11
21109;BME280;10712;52.944;9.098;2023-08-12T03:11:26;101511.31;;;27.65;71.18
21109;BME280;10712;52.944;9.098;2023-08-12T03:13:54;101520.38;;;27.65;71.30
21109;BME280;10712;52.944;9.098;2023-08-12T03:16:22;101511.09;;;27.66;71.35
21109;BME280;10712;52.944;9.098;2023-08-12T03:18:48;101519.53;;;27.65;71.57
21109;BME280;10712;52.944;9.098;2023-08-12T03:21:14;101520.56;;;27.64;71.73
21109;BME280;10712;52.944;9.098;2023-08-12T03:23:40;101509.94;;;27.61;72.20
21109;BME280;10712;52.944;9.098;2023-08-12T03:26:08;101513.91;;;27.58;72.21
21109;BME280;10712;52.944;9.098;2023-08-12T03:28:35;101505.50;;;27.60;72.04
21109;BME280;10712;52.944;9.098;2023-08-12T03:31:01;101507.59;;;27.58;72.33
21109;BME280;10712;52.944;9.098;2023-08-12T03:33:26;101499.56;;;27.56;72.22
21109;BME280;10712;52.944;9.098;2023-08-12T03:35:54;101499.72;;;27.55;72.32
21109;BME280;10712;52.944;9.098;2023-08-12T03:38:20;101503.31;;;27.55;72.50
21109;BME280;10712;52.944;9.098;2023-08-12T03:40:46;101491.69;;;27.53;72.50
21109;BME280;10712;52.944;9.098;2023-08-12T03:43:15;101493.91;;;27.50;72.59
21109;BME280;10712;52.944;9.098;2023-08-12T03:45:43;101494.78;;;27.50;72.55
21109;BME280;10712;52.944;9.098;2023-08-12T03:48:11;101495.63;;;27.51;72.59
21109;BME280;10712;52.944;9.098;2023-08-12T03:50:39;101494.59;;;27.52;72.96
21109;BME280;10712;52.944;9.098;2023-08-12T03:53:05;101497.34;;;27.52;73.01
21109;BME280;10712;52.944;9.098;2023-08-12T03:55:34;101501.97;;;27.51;73.20
21109;BME280;10712;52.944;9.098;2023-08-12T03:58:01;101514.78;;;27.51;73.28
21109;BME280;10712;52.944;9.098;2023-08-12T04:00:28;101501.09;;;27.51;73.32
21109;BME280;10712;52.944;9.098;2023-08-12T04:02:58;101506.59;;;27.51;73.37
21109;BME280;10712;52.944;9.098;2023-08-12T04:05:24;101502.47;;;27.47;73.42
21109;BME280;10712;52.944;9.098;2023-08-12T04:07:50;101507.31;;;27.44;73.36
21109;BME280;10712;52.944;9.098;2023-08-12T04:10:15;101508.97;;;27.45;73.78
21109;BME280;10712;52.944;9.098;2023-08-12T04:12:43;101509.50;;;27.49;73.53
21109;BME280;10712;52.944;9.098;2023-08-12T04:15:09;101511.19;;;27.50;73.82
21109;BME280;10712;52.944;9.098;2023-08-12T04:17:36;101512.06;;;27.51;73.87
21109;BME280;10712;52.944;9.098;2023-08-12T04:20:04;101512.06;;;27.51;74.14
21109;BME280;10712;52.944;9.098;2023-08-12T04:22:33;101518.38;;;27.51;74.13
21109;BME280;10712;52.944;9.098;2023-08-12T04:25:00;101512.06;;;27.51;73.99
21109;BME280;10712;52.944;9.098;2023-08-12T04:27:26;101517.53;;;27.51;74.17
21109;BME280;10712;52.944;9.098;2023-08-12T04:29:52;101527.63;;;27.50;74.20
21109;BME280;10712;52.944;9.098;2023-08-12T04:32:18;101519.59;;;27.49;74.36
21109;BME280;10712;52.944;9.098;2023-08-12T04:34:46;101530.53;;;27.49;74.44
21109;BME280;10712;52.944;9.098;2023-08-12T04:37:13;101526.94;;;27.48;74.46
21109;BME280;10712;52.944;9.098;2023-08-12T04:39:39;101529.69;;;27.48;74.35
21109;BME280;10712;52.944;9.098;2023-08-12T04:42:06;101517.88;;;27.48;74.34
21109;BME280;10712;52.944;9.098;2023-08-12T04:44:32;101525.75;;;27.51;74.31
21109;BME280;10712;52.944;9.098;2023-08-12T04:46:58;101528.47;;;27.51;74.45
21109;BME280;10712;52.944;9.098;2023-08-12T04:49:24;101528.47;;;27.51;74.51
21109;BME280;10712;52.944;9.098;2023-08-12T04:51:52;101520.44;;;27.49;74.67
21109;BME280;10712;52.944;9.098;2023-08-12T04:54:18;101511.19;;;27.50;74.60
21109;BME280;10712;52.944;9.098;2023-08-12T04:56:45;101519.59;;;27.49;74.44
21109;BME280;10712;52.944;9.098;2023-08-12T04:59:11;101521.63;;;27.47;74.66
21109;BME280;10712;52.944;9.098;2023-08-12T05:01:37;101527.13;;;27.47;74.80
21109;BME280;10712;52.944;9.098;2023-08-12T05:04:04;101525.06;;;27.49;74.77
21109;BME280;10712;52.944;9.098;2023-08-12T05:06:30;101522.31;;;27.49;74.83
21109;BME280;10712;52.944;9.098;2023-08-12T05:08:57;101523.84;;;27.51;74.76
21109;BME280;10712;52.944;9.098;2023-08-12T05:11:23;101512.41;;;27.48;74.91
21109;BME280;10712;52.944;9.098;2023-08-12T05:13:49;101519.59;;;27.49;75.20
21109;BME280;10712;52.944;9.098;2023-08-12T05:16:15;101512.41;;;27.48;75.01
21109;BME280;10712;52.944;9.098;2023-08-12T05:18:40;101523.00;;;27.51;75.05
21109;BME280;10712;52.944;9.098;2023-08-12T05:21:06;101505.91;;;27.49;75.18
21109;BME280;10712;52.944;9.098;2023-08-12T05:23:32;101519.59;;;27.49;75.46
21109;BME280;10712;52.944;9.098;2023-08-12T05:25:58;101504.19;;;27.48;75.57
21109;BME280;10712;52.944;9.098;2023-08-12T05:28:23;101505.22;;;27.47;75.33
21109;BME280;10712;52.944;9.098;2023-08-12T05:30:49;101505.59;;;27.43;75.60
21109;BME280;10712;52.944;9.098;2023-08-12T05:33:15;101493.63;;;27.44;75.53
21109;BME280;10712;52.944;9.098;2023-08-12T05:35:41;101493.63;;;27.44;75.41
21109;BME280;10712;52.944;9.098;2023-08-12T05:38:06;101494.28;;;27.47;75.65
21109;BME280;10712;52.944;9.098;2023-08-12T05:40:32;101500.59;;;27.47;75.60
21109;BME280;10712;52.944;9.098;2023-08-12T05:42:58;101492.56;;;27.45;75.65
21109;BME280;10712;52.944;9.098;2023-08-12T05:45:24;101494.47;;;27.45;75.49
21109;BME280;10712;52.944;9.098;2023-08-12T05:47:49;101485.41;;;27.44;75.68
21109;BME280;10712;52.944;9.098;2023-08-12T05:50:15;101480.59;;;27.47;76.04
21109;BME280;10712;52.944;9.098;2023-08-12T05:52:42;101475.78;;;27.49;75.72
21109;BME280;10712;52.944;9.098;2023-08-12T05:55:08;101476.47;;;27.51;75.83
21109;BME280;10712;52.944;9.098;2023-08-12T05:57:34;101486.38;;;27.52;75.85
21109;BME280;10712;52.944;9.098;2023-08-12T06:00:00;101487.06;;;27.54;76.01
21109;BME280;10712;52.944;9.098;2023-08-12T06:02:26;101481.25;;;27.57;75.71
21109;BME280;10712;52.944;9.098;2023-08-12T06:04:52;101492.03;;;27.58;75.96
21109;BME280;10712;52.944;9.098;2023-08-12T06:07:18;101487.00;;;27.62;75.75
21109;BME280;10712;52.944;9.098;2023-08-12T06:09:44;101487.69;;;27.64;76.09
21109;BME280;10712;52.944;9.098;2023-08-12T06:12:09;101480.81;;;27.68;75.87
21109;BME280;10712;52.944;9.098;2023-08-12T06:14:38;101478.91;;;27.68;76.16
21109;BME280;10712;52.944;9.098;2023-08-12T06:17:05;101473.94;;;27.72;76.14
21109;BME280;10712;52.944;9.098;2023-08-12T06:19:31;101472.88;;;27.73;76.50
21109;BME280;10712;52.944;9.098;2023-08-12T06:21:57;101476.47;;;27.73;76.04
21109;BME280;10712;52.944;9.098;2023-08-12T06:24:22;101467.41;;;27.73;76.37
21109;BME280;10712;52.944;9.098;2023-08-12T06:26:48;101466.19;;;27.75;76.44
21109;BME280;10712;52.944;9.098;2023-08-12T06:29:14;101472.72;;;27.74;76.61
21109;BME280;10712;52.944;9.098;2023-08-12T06:31:40;101465.16;;;27.76;76.54
21109;BME280;10712;52.944;9.098;2023-08-12T06:34:06;101465.00;;;27.78;76.54
21109;BME280;10712;52.944;9.098;2023-08-12T06:36:32;101468.59;;;27.78;76.69
21109;BME280;10712;52.944;9.098;2023-08-12T06:38:57;101460.84;;;27.82;76.61
21109;BME280;10712;52.944;9.098;2023-08-12T06:41:23;101458.78;;;27.84;76.43
21109;BME280;10712;52.944;9.098;2023-08-12T06:43:49;101458.78;;;27.84;76.55
21109;BME280;10712;52.944;9.098;2023-08-12T06:46:15;101458.59;;;27.86;76.71
21109;BME280;10712;52.944;9.098;2023-08-12T06:48:41;101461.34;;;27.86;76.37
21109;BME280;10712;52.944;9.098;2023-08-12T06:51:06;101468.53;;;27.87;76.36
21109;BME280;10712;52.944;9.098;2023-08-12T06:53:39;101463.88;;;27.87;76.39
21109;BME280;10712;52.944;9.098;2023-08-12T06:56:05;101467.28;;;27.89;76.54
21109;BME280;10712;52.944;9.098;2023-08-12T06:58:31;101460.78;;;27.90;76.26
21109;BME280;10712;52.944;9.098;2023-08-12T07:00:57;101454.25;;;27.91;76.69
21109;BME280;10712;52.944;9.098;2023-08-12T07:03:25;101453.03;;;27.94;76.65
21109;BME280;10712;52.944;9.098;2023-08-12T07:05:53;101453.03;;;27.94;76.31
21109;BME280;10712;52.944;9.098;2023-08-12T07:08:18;101460.19;;;27.95;76.31
21109;BME280;10712;52.944;9.098;2023-08-12T07:10:44;101455.13;;;27.92;76.64
21109;BME280;10712;52.944;9.098;2023-08-12T07:13:10;101445.66;;;27.94;76.72
21109;BME280;10712;52.944;9.098;2023-08-12T07:15:36;101442.91;;;27.94;76.79
21109;BME280;10712;52.944;9.098;2023-08-12T07:18:01;101439.16;;;27.95;76.74
21109;BME280;10712;52.944;9.098;2023-08-12T07:20:27;101432.63;;;27.96;76.74
21109;BME280;10712;52.944;9.098;2023-08-12T07:22:53;101438.78;;;27.98;76.83
21109;BME280;10712;52.944;9.098;2023-08-12T07:25:19;101427.84;;;27.98;77.00
21109;BME280;10712;52.944;9.098;2023-08-12T07:27:44;101438.78;;;27.98;77.06
21109;BME280;10712;52.944;9.098;2023-08-12T07:30:11;101442.19;;;28.00;76.65
21109;BME280;10712;52.944;9.098;2023-08-12T07:32:38;101446.94;;;28.06;76.61
21109;BME280;10712;52.944;9.098;2023-08-12T07:35:05;101435.13;;;28.06;76.79
21109;BME280;10712;52.944;9.098;2023-08-12T07:37:32;101443.16;;;28.07;76.59
21109;BME280;10712;52.944;9.098;2023-08-12T07:39:58;101434.09;;;28.07;76.57
21109;BME280;10712;52.944;9.098;2023-08-12T07:42:23;101435.91;;;28.14;76.98
21109;BME280;10712;52.944;9.098;2023-08-12T07:44:49;101432.31;;;28.14;77.00
21109;BME280;10712;52.944;9.098;2023-08-12T07:47:15;101440.69;;;28.12;76.53
21109;BME280;10712;52.944;9.098;2023-08-12T07:49:42;101436.06;;;28.13;76.79
21109;BME280;10712;52.944;9.098;2023-08-12T07:52:08;101433.16;;;28.14;76.72
21109;BME280;10712;52.944;9.098;2023-08-12T07:54:35;101429.03;;;28.18;76.81
21109;BME280;10712;52.944;9.098;2023-08-12T07:57:01;101425.72;;;28.23;76.79
21109;BME280;10712;52.944;9.098;2023-08-12T07:59:26;101417.78;;;28.28;76.70
21109;BME280;10712;52.944;9.098;2023-08-12T08:01:52;101420.91;;;28.40;76.48
21109;BME280;10712;52.944;9.098;2023-08-12T08:04:18;101426.00;;;28.43;76.62
21109;BME280;10712;52.944;9.098;2023-08-12T08:06:44;101423.56;;;28.48;76.86
21109;BME280;10712;52.944;9.098;2023-08-12T08:09:10;101420.91;;;28.54;76.69
21109;BME280;10712;52.944;9.098;2023-08-12T08:11:36;101434.03;;;28.59;76.95
21109;BME280;10712;52.944;9.098;2023-08-12T08:14:02;101428.81;;;28.64;76.82
21109;BME280;10712;52.944;9.098;2023-08-12T08:16:28;101435.25;;;28.71;76.93
21109;BME280;10712;52.944;9.098;2023-08-12T08:18:54;101432.84;;;28.76;76.96
21109;BME280;10712;52.944;9.098;2023-08-12T08:21:20;101432.44;;;28.79;77.04
21109;BME280;10712;52.944;9.098;2023-08-12T08:23:46;101435.44;;;28.84;77.39
21109;BME280;10712;52.944;9.098;2023-08-12T08:26:12;101429.59;;;28.87;77.30
21109;BME280;10712;52.944;9.098;2023-08-12T08:28:38;101433.19;;;28.88;77.01
21109;BME280;10712;52.944;9.098;2023-08-12T08:31:04;101432.78;;;28.91;77.41
21109;BME280;10712;52.944;9.098;2023-08-12T08:33:30;101430.88;;;28.91;77.22
21109;BME280;10712;52.944;9.098;2023-08-12T08:35:56;101433.91;;;28.96;77.07
21109;BME280;10712;52.944;9.098;2023-08-12T08:38:21;101422.72;;;28.98;77.26
21109;BME280;10712;52.944;9.098;2023-08-12T08:40:50;101427.19;;;28.99;77.25
21109;BME280;10712;52.944;9.098;2023-08-12T08:43:20;101424.25;;;29.01;76.94
21109;BME280;10712;52.944;9.098;2023-08-12T08:45:52;101418.38;;;29.04;76.60
21109;BME280;10712;52.944;9.098;2023-08-12T08:48:20;101422.63;;;29.06;76.68
21109;BME280;10712;52.944;9.098;2023-08-12T08:50:48;101418.16;;;29.05;76.99
21109;BME280;10712;52.944;9.098;2023-08-12T08:53:16;101413.34;;;29.07;76.86
21109;BME280;10712;52.944;9.098;2023-08-12T08:55:42;101410.50;;;29.15;76.69
21109;BME280;10712;52.944;9.098;2023-08-12T08:58:09;101409.63;;;29.15;76.67
21109;BME280;10712;52.944;9.098;2023-08-12T09:00:37;101407.56;;;29.17;76.36
21109;BME280;10712;52.944;9.098;2023-08-12T09:03:05;101418.13;;;29.20;76.59
21109;BME280;10712;52.944;9.098;2023-08-12T09:05:33;101404.69;;;29.25;76.35
21109;BME280;10712;52.944;9.098;2023-08-12T09:08:02;101410.44;;;29.30;76.51
21109;BME280;10712;52.944;9.098;2023-08-12T09:10:31;101403.53;;;29.34;76.08
21109;BME280;10712;52.944;9.098;2023-08-12T09:12:57;101408.63;;;29.37;76.03
21109;BME280;10712;52.944;9.098;2023-08-12T09:15:24;101402.75;;;29.40;76.09
21109;BME280;10712;52.944;9.098;2023-08-12T09:17:50;101407.84;;;29.43;76.10
21109;BME280;10712;52.944;9.098;2023-08-12T09:20:16;101397.91;;;29.42;75.94
21109;BME280;10712;52.944;9.098;2023-08-12T09:22:42;101396.41;;;29.40;75.79
21109;BME280;10712;52.944;9.098;2023-08-12T09:25:09;101406.53;;;29.39;75.89
21109;BME280;10712;52.944;9.098;2023-08-12T09:27:38;101401.03;;;29.39;75.71
21109;BME280;10712;52.944;9.098;2023-08-12T09:30:07;101398.50;;;29.38;75.59
21109;BME280;10712;52.944;9.098;2023-08-12T09:32:33;101397.66;;;29.37;75.48
21109;BME280;10712;52.944;9.098;2023-08-12T09:35:04;101402.13;;;29.38;75.56
21109;BME280;10712;52.944;9.098;2023-08-12T09:37:31;101405.47;;;29.40;75.31
21109;BME280;10712;52.944;9.098;2023-08-12T09:39:57;101400.22;;;29.39;75.49
21109;BME280;10712;52.944;9.098;2023-08-12T09:42:24;101403.16;;;29.37;75.13
21109;BME280;10712;52.944;9.098;2023-08-12T09:44:50;101403.16;;;29.37;75.59
21109;BME280;10712;52.944;9.098;2023-08-12T09:47:16;101398.50;;;29.38;75.36
21109;BME280;10712;52.944;9.098;2023-08-12T09:49:42;101394.91;;;29.37;75.65
21109;BME280;10712;52.944;9.098;2023-08-12T09:52:09;101397.66;;;29.37;75.57
21109;BME280;10712;52.944;9.098;2023-08-12T09:54:35;101383.66;;;29.32;75.76
21109;BME280;10712;52.944;9.098;2023-08-12T09:57:04;101385.31;;;29.33;75.51
21109;BME280;10712;52.944;9.098;2023-08-12T09:59:34;101378.53;;;29.29;75.83
21109;BME280;10712;52.944;9.098;2023-08-12T10:02:03;101371.34;;;29.28;75.74
21109;BME280;10712;52.944;9.098;2023-08-12T10:04:40;101364.56;;;29.24;75.95
21109;BME280;10712;52.944;9.098;2023-08-12T10:07:09;101369.66;;;29.27;75.67
21109;BME280;10712;52.944;9.098;2023-08-12T10:09:36;101349.38;;;29.28;75.71
21109;BME280;10712;52.944;9.098;2023-08-12T10:12:04;101345.59;;;29.29;75.73
21109;BME280;10712;52.944;9.098;2023-08-12T10:14:31;101340.38;;;29.34;76.08
21109;BME280;10712;52.944;9.098;2023-08-12T10:16:58;101346.53;;;29.36;75.68
21109;BME280;10712;52.944;9.098;2023-08-12T10:19:25;101351.63;;;29.39;75.83
21109;BME280;10712;52.944;9.098;2023-08-12T10:21:55;101345.75;;;29.42;75.78
21109;BME280;10712;52.944;9.098;2023-08-12T10:24:27;101348.50;;;29.42;76.16
21109;BME280;10712;52.944;9.098;2023-08-12T10:26:53;101344.50;;;29.45;76.16
21109;BME280;10712;52.944;9.098;2023-08-12T10:29:22;101350.44;;;29.48;76.31
21109;BME280;10712;52.944;9.098;2023-08-12T10:31:49;101350.44;;;29.48;76.35
21109;BME280;10712;52.944;9.098;2023-08-12T10:34:23;101365.22;;;29.47;76.46
21109;BME280;10712;52.944;9.098;2023-08-12T10:36:57;101355.28;;;29.46;76.24
21109;BME280;10712;52.944;9.098;2023-08-12T10:39:27;101350.00;;;29.45;76.65
21109;BME280;10712;52.944;9.098;2023-08-12T10:41:56;101344.50;;;29.45;76.73
21109;BME280;10712;52.944;9.098;2023-08-12T10:45:11;101351.47;;;29.47;76.91
21109;BME280;10712;52.944;9.098;2023-08-12T10:47:11;101353.84;;;29.50;76.74
21109;BME280;10712;52.944;9.098;2023-08-12T10:49:48;101352.16;;;29.49;76.87
21109;BME280;10712;52.944;9.098;2023-08-12T10:52:31;101355.09;;;29.48;77.19
21109;BME280;10712;52.944;9.098;2023-08-12T10:55:20;101342.81;;;29.44;77.43
21109;BME280;10712;52.944;9.098;2023-08-12T10:57:52;101335.44;;;29.44;77.26
21109;BME280;10712;52.944;9.098;2023-08-12T11:00:29;101314.03;;;29.40;77.21
21109;BME280;10712;52.944;9.098;2023-08-12T11:02:58;101307.06;;;29.37;77.13
21109;BME280;10712;52.944;9.098;2023-08-12T11:05:25;101294.56;;;29.34;77.07
21109;BME280;10712;52.944;9.098;2023-08-12T11:08:01;101286.50;;;29.33;77.22
21109;BME280;10712;52.944;9.098;2023-08-12T11:10:35;101278.03;;;29.28;77.55
21109;BME280;10712;52.944;9.098;2023-08-12T11:13:02;101283.94;;;29.25;77.57
21109;BME280;10712;52.944;9.098;2023-08-12T11:15:43;101294.44;;;29.21;77.62
21109;BME280;10712;52.944;9.098;2023-08-12T11:18:19;101287.25;;;29.20;77.77
21109;BME280;10712;52.944;9.098;2023-08-12T11:20:48;101268.03;;;29.20;77.49
21109;BME280;10712;52.944;9.098;2023-08-12T11:23:15;101280.53;;;29.23;77.67
21109;BME280;10712;52.944;9.098;2023-08-12T11:25:43;101280.34;;;29.24;78.22
21109;BME280;10712;52.944;9.098;2023-08-12T11:28:10;101284.38;;;29.28;78.30
21109;BME280;10712;52.944;9.098;2023-08-12T11:30:36;101288.25;;;29.34;78.31
21109;BME280;10712;52.944;9.098;2023-08-12T11:33:02;101280.66;;;29.36;78.53
21109;BME280;10712;52.944;9.098;2023-08-12T11:35:29;101274.97;;;29.38;78.85
21109;BME280;10712;52.944;9.098;2023-08-12T11:37:57;101266.50;;;29.39;78.60
21109;BME280;10712;52.944;9.098;2023-08-12T11:40:26;101276.06;;;29.43;78.97
21109;BME280;10712;52.944;9.098;2023-08-12T11:42:53;101274.38;;;29.42;78.75
21109;BME280;10712;52.944;9.098;2023-08-12T11:45:24;101266.13;;;29.42;78.97
21109;BME280;10712;52.944;9.098;2023-08-12T11:47:51;101267.59;;;29.38;79.09
21109;BME280;10712;52.944;9.098;2023-08-12T11:50:25;101266.75;;;29.38;78.94
21109;BME280;10712;52.944;9.098;2023-08-12T11:52:53;101269.25;;;29.39;79.44
21109;BME280;10712;52.944;9.098;2023-08-12T11:55:21;101257.47;;;29.39;79.38
21109;BME280;10712;52.944;9.098;2023-08-12T11:57:47;101258.94;;;29.41;79.17
21109;BME280;10712;52.944;9.098;2023-08-12T12:00:13;101253.69;;;29.46;79.37
21109;BME280;10712;52.944;9.098;2023-08-12T12:02:45;101252.06;;;29.52;79.27
21109;BME280;10712;52.944;9.098;2023-08-12T12:05:11;101253.31;;;29.49;79.82
21109;BME280;10712;52.944;9.098;2023-08-12T12:07:37;101243.72;;;29.66;79.72
21109;BME280;10712;52.944;9.098;2023-08-12T12:10:05;101254.94;;;29.71;79.91
21109;BME280;10712;52.944;9.098;2023-08-12T12:12:34;101244.19;;;29.76;79.93
21109;BME280;10712;52.944;9.098;2023-08-12T12:15:02;101249.66;;;29.76;79.96
21109;BME280;10712;52.944;9.098;2023-08-12T12:17:28;101252.22;;;29.78;80.01
21109;BME280;10712;52.944;9.098;2023-08-12T12:19:59;101249.28;;;29.80;79.74
21109;BME280;10712;52.944;9.098;2023-08-12T12:22:32;101239.53;;;29.77;80.18
21109;BME280;10712;52.944;9.098;2023-08-12T12:25:07;101241.44;;;29.76;79.85
21109;BME280;10712;52.944;9.098;2023-08-12T12:27:33;101239.97;;;29.81;80.07
21109;BME280;10712;52.944;9.098;2023-08-12T12:30:00;101234.88;;;29.77;79.87
21109;BME280;10712;52.944;9.098;2023-08-12T12:32:26;101239.13;;;29.80;80.24
21109;BME280;10712;52.944;9.098;2023-08-12T12:34:52;101226.22;;;29.81;80.23
21109;BME280;10712;52.944;9.098;2023-08-12T12:37:20;101227.94;;;29.82;80.12
21109;BME280;10712;52.944;9.098;2023-08-12T12:39:47;101231.97;;;29.86;80.16
21109;BME280;10712;52.944;9.098;2023-08-12T12:42:12;101217.63;;;29.90;80.24
21109;BME280;10712;52.944;9.098;2023-08-12T12:44:39;101215.97;;;29.96;80.17
21109;BME280;10712;52.944;9.098;2023-08-12T12:47:04;101221.09;;;29.99;80.04
21109;BME280;10712;52.944;9.098;2023-08-12T12:49:30;101225.56;;;30.06;80.32
21109;BME280;10712;52.944;9.098;2023-08-12T12:51:56;101220.88;;;30.00;80.14